Latest Conditions
At L.F.Wade Int. Airport
Recorded at 4:55 pm
Partly Cloudy
Temp.: 
18°C/64°F
Humidity: 
57%
Wind: 
NE 16KT
or 18mph
UV Index: 
0
Island Observations
 
Observations
Sunday, December 08, 2019

Observations are in local time and taken at least once an hour, or upon the start and end of specified events such as showers and thunderstorms.

Time Sky / Weather Wind Speed/Gusts Temp. R.H. Pressure
     knots (mph)  °C (°F)  %  mb / "Hg
 16:55 Partly Cloudy  NE 16/0 (18/0) 18(64) 57 1027 / 30.32
 15:55 Few Clouds  NNE 14/0 (16/0) 18(65) 58 1026 / 30.30
 14:55 Few Clouds  NNE 16/0 (18/0) 19(66) 54 1025 / 30.28
 13:55 Partly Cloudy  NNE 16/0 (18/0) 19(66) 58 1025 / 30.28
 12:55 Partly Cloudy  NNE 17/0 (20/0) 19(66) 61 1025 / 30.28
 11:55 Partly Cloudy  NNE 17/0 (20/0) 19(67) 61 1026 / 30.29
 10:55 Mostly Cloudy  NNE 18/0 (21/0) 19(66) 66 1026 / 30.30
 09:55 Mostly Cloudy Showers NNE 18/0 (21/0) 19(66) 71 1025 / 30.28
 08:55 Mostly Cloudy Showers NNE 16/0 (18/0) 18(65) 74 1024 / 30.25
 08:41 Mostly Cloudy Showers NE 13/0 (15/0) 17(63) 90 1024 / 30.25
 08:32 Overcast Showers NNE 16/0 (18/0) 17(63) 90 1024 / 30.25
 08:29 Overcast Showers NNE 17/0 (20/0) 17(63) 89 1024 / 30.24
 08:00 Overcast Showers NNE 18/0 (21/0) 17(63) 90 1023 / 30.22
 07:55 Overcast Showers NNE 14/0 (16/0) 17(63) 91 1023 / 30.22
 07:45 Overcast Showers N 13/0 (15/0) 17(63) 91 1023 / 30.22
 07:41 Overcast Showers N 14/27 (16/31) 17(62) 91 1023 / 30.22
 07:32 Mostly Cloudy Showers NNW 16/0 (18/0) 17(62) 89 1023 / 30.21
 07:28 Mostly Cloudy Showers NNW 16/0 (18/0) 17(63) 88 1023 / 30.20
 06:55 Mostly Cloudy Showers WNW 7/0 (8/0) 20(67) 76 1022 / 30.19
 05:55 Mostly Cloudy Showers W 6/0 (7/0) 19(67) 69 1021 / 30.16
 04:55 Mostly Cloudy  WNW 5/0 (6/0) 19(66) 64 1021 / 30.14
 03:55 Partly Cloudy  WSW 6/0 (7/0) 17(63) 78 1021 / 30.14
 02:55 Mostly Cloudy  WSW 5/0 (6/0) 16(61) 79 1021 / 30.14
 01:55 Partly Cloudy  W 3/0 (3/0) 17(62) 71 1021 / 30.14
 00:55 Mostly Cloudy  SW 5/0 (6/0) 16(61) 79 1021 / 30.15
 23:55 Mostly Cloudy  SW 5/0 (6/0) 16(61) 87 1022 / 30.17
 22:55 Mostly Cloudy  WSW 3/0 (3/0) 15(60) 90 1022 / 30.17
 21:55 Partly Cloudy  VRB 2/0 (2/0) 15(60) 89 1022 / 30.17
 20:55 Few Clouds  NW 2/0 (2/0) 16(62) 82 1022 / 30.17
 19:55 Few Clouds  Calm 16(62) 82 1022 / 30.17
 18:55 Partly Cloudy  NW 2/0 (2/0) 17(62) 77 1022 / 30.17
 17:55 Few Clouds  NW 2/0 (2/0) 17(63) 71 1021 / 30.16
 16:55 Few Clouds  WNW 4/0 (5/0) 19(66) 65 1021 / 30.16
 15:55 Partly Cloudy  W 3/0 (3/0) 20(68) 57 1021 / 30.15
 14:55 Few Clouds  W 5/0 (6/0) 20(68) 59 1021 / 30.15
 13:55 Few Clouds  W 6/0 (7/0) 20(68) 59 1021 / 30.16
 12:55 Few Clouds  W 6/0 (7/0) 20(68) 60 1022 / 30.17
 11:55 Partly Cloudy  W 3/0 (3/0) 20(68) 56 1023 / 30.20
 10:55 Mostly Cloudy  VRB 2/0 (2/0) 20(68) 58 1023 / 30.22
 09:55 Partly Cloudy  W 3/0 (3/0) 20(68) 59 1024 / 30.23
 08:55 Partly Cloudy  NW 2/0 (2/0) 19(67) 68 1023 / 30.22
 07:55 Partly Cloudy  NNW 2/0 (2/0) 16(61) 85 1023 / 30.21
 06:55 Mostly Cloudy Showers NNW 3/0 (3/0) 17(62) 74 1023 / 30.22
 05:55 Mostly Cloudy  WNW 4/0 (5/0) 17(63) 77 1023 / 30.21
 04:55 Mostly Cloudy  VRB 2/0 (2/0) 16(62) 80 1023 / 30.20
 04:01 Mostly Cloudy Showers NW 2/0 (2/0) 17(62) 74 1023 / 30.21
 03:55 Mostly Cloudy Showers W 3/0 (3/0) 17(62) 73 1023 / 30.21
 03:35 Mostly Cloudy Showers W 3/0 (3/0) 17(62) 76 1023 / 30.22
 03:06 Mostly Cloudy Showers NNE 3/0 (3/0) 18(64) 67 1023 / 30.22
 02:55 Mostly Cloudy Showers NNE 5/0 (6/0) 17(63) 74 1023 / 30.22
 01:55 Mostly Cloudy Showers ENE 4/0 (5/0) 17(62) 71 1024 / 30.23
 00:55 Mostly Cloudy Showers NNE 5/0 (6/0) 17(62) 71 1024 / 30.24
 00:23 Mostly Cloudy Showers NNE 3/0 (3/0) 18(64) 67 1024 / 30.25
 23:55 Mostly Cloudy Showers NNE 4/0 (5/0) 18(65) 62 1024 / 30.25
 22:55 Mostly Cloudy Showers ENE 3/0 (3/0) 18(64) 63 1025 / 30.26
 21:55 Mostly Cloudy Showers NE 3/0 (3/0) 18(64) 68 1025 / 30.26
 20:55 Mostly Cloudy Showers NE 4/0 (5/0) 17(63) 66 1025 / 30.26
 20:06 Mostly Cloudy Showers WNW 7/0 (8/0) 20(68) 79 1025 / 30.26
 19:55 Mostly Cloudy Showers NNE 5/0 (6/0) 18(64) 64 1025 / 30.26
 18:55 Partly Cloudy  N 5/0 (6/0) 18(64) 53 1024 / 30.25
 17:55 Few Clouds  N 4/0 (5/0) 18(64) 53 1024 / 30.24
 16:55 Few Clouds  N 6/0 (7/0) 18(65) 50 1023 / 30.22
 15:55 Few Clouds  NNW 9/0 (10/0) 19(66) 50 1023 / 30.22
 14:55 Mostly Cloudy  N 8/0 (9/0) 19(66) 50 1023 / 30.21
 13:55 Mostly Cloudy  N 9/0 (10/0) 20(68) 47 1023 / 30.21
 12:55 Few Clouds  NNW 11/0 (13/0) 19(67) 45 1023 / 30.22
 11:55 Mostly Cloudy  N 13/0 (15/0) 19(66) 51 1024 / 30.23
 10:55 Partly Cloudy  N 11/0 (13/0) 20(68) 50 1024 / 30.23
 09:55 Mostly Cloudy  NNW 13/0 (15/0) 20(67) 46 1023 / 30.22
 08:55 Partly Cloudy  NNW 12/0 (14/0) 19(66) 49 1023 / 30.20
 07:55 Mostly Cloudy Showers NNW 12/0 (14/0) 19(66) 46 1022 / 30.18
 06:55 Mostly Cloudy Showers NNW 15/0 (17/0) 18(64) 57 1021 / 30.15
 05:55 Mostly Cloudy Showers NW 15/0 (17/0) 18(65) 53 1020 / 30.13
 04:55 Mostly Cloudy  NW 18/0 (21/0) 18(65) 48 1020 / 30.11
 03:55 Mostly Cloudy Showers NW 15/0 (17/0) 18(64) 56 1019 / 30.10
 02:55 Mostly Cloudy  NW 17/0 (20/0) 18(65) 54 1019 / 30.08
 01:55 Mostly Cloudy  NW 16/0 (18/0) 18(65) 57 1018 / 30.07
 00:55 Mostly Cloudy  WNW 20/0 (23/0) 19(66) 56 1018 / 30.05
 23:55 Mostly Cloudy  WNW 19/0 (22/0) 19(66) 62 1017 / 30.03
 22:55 Mostly Cloudy  NW 19/0 (22/0) 19(67) 64 1017 / 30.02
 21:55 Mostly Cloudy  NW 19/0 (22/0) 20(67) 67 1016 / 30.00
 20:55 Mostly Cloudy  WNW 17/0 (20/0) 20(68) 62 1015 / 29.97
 19:55 Mostly Cloudy  NW 17/0 (20/0) 20(69) 70 1014 / 29.95
 18:55 Mostly Cloudy  W 20/0 (23/0) 21(70) 60 1014 / 29.93
 17:55 Mostly Cloudy Showers W 20/0 (23/0) 21(69) 74 1012 / 29.89
 17:35 Mostly Cloudy Showers WNW 19/0 (22/0) 20(68) 79 1012 / 29.89
 17:26 Mostly Cloudy Showers W 26/0 (30/0) 20(68) 72 1012 / 29.89
 17:05 Mostly Cloudy Showers W 18/0 (21/0) 21(70) 77 1012 / 29.88
 16:55 Mostly Cloudy Showers WSW 18/0 (21/0) 21(71) 74 1012 / 29.88
 15:55 Mostly Cloudy  WSW 19/0 (22/0) 22(72) 66 1011 / 29.86
 14:55 Mostly Cloudy  W 19/0 (22/0) 22(72) 68 1010 / 29.84
 13:55 Mostly Cloudy Showers W 19/0 (22/0) 22(72) 67 1010 / 29.84
 12:55 Mostly Cloudy  WSW 22/0 (25/0) 23(73) 65 1010 / 29.84
 11:55 Mostly Cloudy  WSW 18/0 (21/0) 22(72) 64 1011 / 29.86
 10:55 Mostly Cloudy  WSW 18/0 (21/0) 22(72) 64 1012 / 29.88
 09:55 Mostly Cloudy  WSW 17/0 (20/0) 22(72) 65 1012 / 29.87
 08:55 Mostly Cloudy  WSW 17/0 (20/0) 22(71) 70 1011 / 29.86
 08:11 Mostly Cloudy Showers W 19/0 (22/0) 21(71) 69 1011 / 29.85
 08:02 Mostly Cloudy Showers W 19/0 (22/0) 21(71) 73 1011 / 29.85
 07:55 Mostly Cloudy Showers WSW 16/0 (18/0) 22(71) 68 1010 / 29.84
Island AWOS